Dallas, Texas
Current Conditions -  °F | °C
As of 4:53 AM on Friday 19 Dec 2014 (Local Time) from KDAL Reporting Station
Haze Haze  
Wind Chill: 43°   Ceiling: 800
Heat Index: 46°   Visibility: 6mi
Dew Point: 43°   Wind: 6mph
Humidity: 89%   Direction: 320°NW
Pressure: 30.21"   Gusts: NA
Location:  32.78°N, 96.79°W
Report Text: KDAL 191053Z 32005KT 6SM BR FEW003 OVC008 08/06 A3021 RMK AO2 RAB15E33 SLP227 CIG LWR SE P0000 T00780061
Loading
Personal Weather Stations






























Interactive Weather Map New forecast layout! Learn more

10-Day Weather Forecast

Advertisements
Track Severe Weather on mobile